sensor_id;sensor_type;location;lat;lon;timestamp;pressure;altitude;pressure_sealevel;temperature;humidity
58644;BME280;44411;49.994;8.660;2022-12-29T00:01:35;99382.81;;;11.46;65.44
58644;BME280;44411;49.994;8.660;2022-12-29T00:04:01;99388.94;;;11.52;65.53
58644;BME280;44411;49.994;8.660;2022-12-29T00:06:26;99385.00;;;11.36;65.89
58644;BME280;44411;49.994;8.660;2022-12-29T00:08:52;99394.97;;;11.40;65.98
58644;BME280;44411;49.994;8.660;2022-12-29T00:11:20;99380.81;;;11.38;64.97
58644;BME280;44411;49.994;8.660;2022-12-29T00:13:46;99372.28;;;11.31;65.32
58644;BME280;44411;49.994;8.660;2022-12-29T00:16:31;99390.72;;;11.57;64.56
58644;BME280;44411;49.994;8.660;2022-12-29T00:18:58;99413.91;;;11.37;64.93
58644;BME280;44411;49.994;8.660;2022-12-29T00:21:25;99385.19;;;11.39;65.37
58644;BME280;44411;49.994;8.660;2022-12-29T00:24:22;99390.00;;;11.42;65.49
58644;BME280;44411;49.994;8.660;2022-12-29T00:29:46;99385.41;;;11.51;66.17
58644;BME280;44411;49.994;8.660;2022-12-29T00:32:30;99376.75;;;11.58;66.14
58644;BME280;44411;49.994;8.660;2022-12-29T00:35:31;99393.88;;;11.81;66.24
58644;BME280;44411;49.994;8.660;2022-12-29T00:38:02;99372.13;;;11.67;67.16
58644;BME280;44411;49.994;8.660;2022-12-29T00:40:47;99368.84;;;11.57;68.94
58644;BME280;44411;49.994;8.660;2022-12-29T00:43:31;99383.19;;;11.62;69.49
58644;BME280;44411;49.994;8.660;2022-12-29T00:46:15;99408.28;;;11.64;70.03
58644;BME280;44411;49.994;8.660;2022-12-29T00:48:40;99369.69;;;11.66;69.46
58644;BME280;44411;49.994;8.660;2022-12-29T00:51:25;99357.44;;;11.55;70.50
58644;BME280;44411;49.994;8.660;2022-12-29T00:53:50;99383.34;;;11.66;71.99
58644;BME280;44411;49.994;8.660;2022-12-29T00:56:15;99367.25;;;11.56;73.71
58644;BME280;44411;49.994;8.660;2022-12-29T00:58:41;99384.28;;;11.52;73.73
58644;BME280;44411;49.994;8.660;2022-12-29T01:01:08;99397.63;;;11.54;74.50
58644;BME280;44411;49.994;8.660;2022-12-29T01:03:35;99374.84;;;11.67;73.91
58644;BME280;44411;49.994;8.660;2022-12-29T01:06:05;99350.69;;;11.52;75.16
58644;BME280;44411;49.994;8.660;2022-12-29T01:08:32;99376.50;;;11.77;75.03
58644;BME280;44411;49.994;8.660;2022-12-29T01:11:07;99365.16;;;11.93;74.06
58644;BME280;44411;49.994;8.660;2022-12-29T01:13:33;99370.56;;;11.84;74.46
58644;BME280;44411;49.994;8.660;2022-12-29T01:15:58;99396.00;;;11.84;74.22
58644;BME280;44411;49.994;8.660;2022-12-29T01:18:25;99375.81;;;12.03;73.94
58644;BME280;44411;49.994;8.660;2022-12-29T01:20:51;99369.03;;;12.00;74.07
58644;BME280;44411;49.994;8.660;2022-12-29T01:23:22;99386.16;;;11.83;74.69
58644;BME280;44411;49.994;8.660;2022-12-29T01:25:48;99366.63;;;11.90;74.16
58644;BME280;44411;49.994;8.660;2022-12-29T01:28:13;99373.00;;;11.85;73.72
58644;BME280;44411;49.994;8.660;2022-12-29T06:02:24;99202.59;;;12.81;66.34
58644;BME280;44411;49.994;8.660;2022-12-29T06:04:50;99192.31;;;12.78;65.83
58644;BME280;44411;49.994;8.660;2022-12-29T06:07:15;99207.25;;;12.80;66.48
58644;BME280;44411;49.994;8.660;2022-12-29T06:09:40;99221.69;;;12.98;65.79
58644;BME280;44411;49.994;8.660;2022-12-29T06:12:06;99216.88;;;12.95;65.89
58644;BME280;44411;49.994;8.660;2022-12-29T06:14:31;99215.69;;;13.14;65.04
58644;BME280;44411;49.994;8.660;2022-12-29T06:16:56;99231.41;;;12.87;65.49
58644;BME280;44411;49.994;8.660;2022-12-29T06:19:22;99223.81;;;13.31;63.76
58644;BME280;44411;49.994;8.660;2022-12-29T06:21:47;99223.31;;;13.38;63.91
58644;BME280;44411;49.994;8.660;2022-12-29T06:24:13;99210.41;;;13.38;63.28
58644;BME280;44411;49.994;8.660;2022-12-29T06:26:38;99212.22;;;13.34;63.37
58644;BME280;44411;49.994;8.660;2022-12-29T06:29:05;99206.75;;;13.34;63.32
58644;BME280;44411;49.994;8.660;2022-12-29T06:31:32;99220.88;;;13.45;63.11
58644;BME280;44411;49.994;8.660;2022-12-29T06:33:57;99225.69;;;13.48;63.29
58644;BME280;44411;49.994;8.660;2022-12-29T06:36:23;99226.00;;;13.47;62.83
58644;BME280;44411;49.994;8.660;2022-12-29T06:38:48;99208.00;;;13.37;63.03
58644;BME280;44411;49.994;8.660;2022-12-29T06:41:13;99229.47;;;13.26;64.09
58644;BME280;44411;49.994;8.660;2022-12-29T06:43:39;99224.28;;;13.33;63.32
58644;BME280;44411;49.994;8.660;2022-12-29T06:46:05;99226.00;;;13.47;63.27
58644;BME280;44411;49.994;8.660;2022-12-29T06:48:30;99218.16;;;13.36;63.73
58644;BME280;44411;49.994;8.660;2022-12-29T06:50:55;99227.00;;;13.42;63.17
58644;BME280;44411;49.994;8.660;2022-12-29T06:53:21;99209.63;;;13.29;63.44
58644;BME280;44411;49.994;8.660;2022-12-29T06:55:46;99233.00;;;13.35;63.64
58644;BME280;44411;49.994;8.660;2022-12-29T06:58:11;99221.19;;;13.43;63.23
58644;BME280;44411;49.994;8.660;2022-12-29T07:00:37;99219.63;;;13.34;63.96
58644;BME280;44411;49.994;8.660;2022-12-29T07:03:02;99219.00;;;13.28;63.41
58644;BME280;44411;49.994;8.660;2022-12-29T07:05:27;99215.75;;;13.26;64.00
58644;BME280;44411;49.994;8.660;2022-12-29T07:07:54;99215.75;;;13.26;63.59
58644;BME280;44411;49.994;8.660;2022-12-29T07:10:19;99226.72;;;13.26;63.48
58644;BME280;44411;49.994;8.660;2022-12-29T07:12:45;99225.13;;;13.34;63.23
58644;BME280;44411;49.994;8.660;2022-12-29T07:15:10;99224.66;;;13.23;63.81
58644;BME280;44411;49.994;8.660;2022-12-29T07:17:35;99208.59;;;13.13;64.05
58644;BME280;44411;49.994;8.660;2022-12-29T07:20:01;99221.31;;;13.17;63.70
58644;BME280;44411;49.994;8.660;2022-12-29T07:22:26;99209.63;;;12.99;65.52
58644;BME280;44411;49.994;8.660;2022-12-29T07:24:51;99232.16;;;12.96;66.70
58644;BME280;44411;49.994;8.660;2022-12-29T07:27:17;99214.38;;;12.73;67.33
58644;BME280;44411;49.994;8.660;2022-12-29T07:29:42;99206.81;;;12.70;67.23
58644;BME280;44411;49.994;8.660;2022-12-29T07:32:07;99206.47;;;12.80;66.45
58644;BME280;44411;49.994;8.660;2022-12-29T07:34:33;99230.81;;;13.11;65.32
58644;BME280;44411;49.994;8.660;2022-12-29T07:36:58;99234.94;;;13.26;64.03
58644;BME280;44411;49.994;8.660;2022-12-29T07:39:23;99237.22;;;13.24;63.42
58644;BME280;44411;49.994;8.660;2022-12-29T07:41:49;99230.94;;;13.32;63.28
58644;BME280;44411;49.994;8.660;2022-12-29T07:44:14;99276.28;;;13.51;62.52
58644;BME280;44411;49.994;8.660;2022-12-29T07:46:39;99231.94;;;13.19;63.20
58644;BME280;44411;49.994;8.660;2022-12-29T07:49:04;99233.69;;;13.15;64.03
58644;BME280;44411;49.994;8.660;2022-12-29T07:51:30;99241.09;;;13.23;64.00
58644;BME280;44411;49.994;8.660;2022-12-29T07:53:56;99222.38;;;13.25;63.96
58644;BME280;44411;49.994;8.660;2022-12-29T07:56:21;99252.56;;;13.55;63.01
58644;BME280;44411;49.994;8.660;2022-12-29T07:58:47;99237.88;;;13.59;63.12
58644;BME280;44411;49.994;8.660;2022-12-29T08:01:12;99258.22;;;13.50;62.82
58644;BME280;44411;49.994;8.660;2022-12-29T08:03:37;99250.00;;;13.50;63.36
58644;BME280;44411;49.994;8.660;2022-12-29T08:06:04;99267.78;;;13.43;62.88
58644;BME280;44411;49.994;8.660;2022-12-29T08:08:30;99253.03;;;13.57;63.79
58644;BME280;44411;49.994;8.660;2022-12-29T08:10:55;99265.03;;;13.43;63.57
58644;BME280;44411;49.994;8.660;2022-12-29T08:13:20;99267.44;;;13.45;63.32
58644;BME280;44411;49.994;8.660;2022-12-29T08:15:46;99255.59;;;13.32;63.91
58644;BME280;44411;49.994;8.660;2022-12-29T08:18:11;99260.03;;;13.46;63.81
58644;BME280;44411;49.994;8.660;2022-12-29T08:20:36;99274.75;;;13.32;63.89
58644;BME280;44411;49.994;8.660;2022-12-29T08:23:02;99245.16;;;13.55;62.72
58644;BME280;44411;49.994;8.660;2022-12-29T08:25:27;99293.44;;;13.39;63.91
58644;BME280;44411;49.994;8.660;2022-12-29T08:27:52;99278.78;;;13.65;62.24
58644;BME280;44411;49.994;8.660;2022-12-29T08:30:18;99273.78;;;13.67;62.90
58644;BME280;44411;49.994;8.660;2022-12-29T08:32:43;99282.19;;;13.61;61.74
58644;BME280;44411;49.994;8.660;2022-12-29T08:35:08;99261.00;;;13.71;61.84
58644;BME280;44411;49.994;8.660;2022-12-29T08:37:34;99253.75;;;13.45;62.43
58644;BME280;44411;49.994;8.660;2022-12-29T08:40:00;99266.25;;;13.55;61.80
58644;BME280;44411;49.994;8.660;2022-12-29T08:42:29;99253.25;;;13.52;62.50
58644;BME280;44411;49.994;8.660;2022-12-29T08:44:56;99256.19;;;13.68;62.12
58644;BME280;44411;49.994;8.660;2022-12-29T08:47:22;99281.69;;;13.68;63.21
58644;BME280;44411;49.994;8.660;2022-12-29T08:49:47;99270.97;;;13.46;63.18
58644;BME280;44411;49.994;8.660;2022-12-29T08:52:12;99277.69;;;13.57;62.42
58644;BME280;44411;49.994;8.660;2022-12-29T08:54:38;99254.63;;;13.58;62.93
58644;BME280;44411;49.994;8.660;2022-12-29T08:57:04;99289.22;;;13.71;61.86
58644;BME280;44411;49.994;8.660;2022-12-29T08:59:30;99264.34;;;13.76;61.50
58644;BME280;44411;49.994;8.660;2022-12-29T09:01:55;99261.81;;;13.71;61.96
58644;BME280;44411;49.994;8.660;2022-12-29T09:04:20;99255.94;;;13.81;61.28
58644;BME280;44411;49.994;8.660;2022-12-29T09:06:46;99272.28;;;13.99;60.64
58644;BME280;44411;49.994;8.660;2022-12-29T09:09:12;99276.16;;;13.98;60.03
58644;BME280;44411;49.994;8.660;2022-12-29T09:11:37;99286.25;;;13.85;61.23
58644;BME280;44411;49.994;8.660;2022-12-29T09:14:03;99288.94;;;13.94;60.87
58644;BME280;44411;49.994;8.660;2022-12-29T09:16:28;99278.69;;;13.82;62.02
58644;BME280;44411;49.994;8.660;2022-12-29T09:18:54;99294.88;;;13.96;61.25
58644;BME280;44411;49.994;8.660;2022-12-29T09:21:19;99294.56;;;13.68;63.25
58644;BME280;44411;49.994;8.660;2022-12-29T09:23:45;99286.34;;;13.68;65.77
58644;BME280;44411;49.994;8.660;2022-12-29T09:26:10;99291.81;;;13.29;66.77
58644;BME280;44411;49.994;8.660;2022-12-29T09:28:35;99294.63;;;13.12;65.85
58644;BME280;44411;49.994;8.660;2022-12-29T09:31:01;99315.53;;;13.34;66.63
58644;BME280;44411;49.994;8.660;2022-12-29T09:33:27;99325.66;;;13.33;66.14
58644;BME280;44411;49.994;8.660;2022-12-29T09:35:56;99322.94;;;13.33;65.33
58644;BME280;44411;49.994;8.660;2022-12-29T09:38:24;99330.34;;;13.24;65.77
58644;BME280;44411;49.994;8.660;2022-12-29T09:40:54;99324.38;;;13.39;67.30
58644;BME280;44411;49.994;8.660;2022-12-29T09:43:43;99310.41;;;13.15;67.62
58644;BME280;44411;49.994;8.660;2022-12-29T09:46:49;99308.09;;;13.34;65.57
58644;BME280;44411;49.994;8.660;2022-12-29T09:52:13;99310.69;;;13.39;65.29
58644;BME280;44411;49.994;8.660;2022-12-29T09:55:19;99338.50;;;13.59;64.35
58644;BME280;44411;49.994;8.660;2022-12-29T09:57:57;99332.03;;;13.55;66.86
58644;BME280;44411;49.994;8.660;2022-12-29T10:00:43;99367.59;;;13.07;68.69
58644;BME280;44411;49.994;8.660;2022-12-29T10:03:18;99355.09;;;12.54;74.35
58644;BME280;44411;49.994;8.660;2022-12-29T10:05:50;99360.53;;;11.62;79.95
58644;BME280;44411;49.994;8.660;2022-12-29T10:10:57;99402.41;;;10.94;84.20
58644;BME280;44411;49.994;8.660;2022-12-29T10:13:36;99391.19;;;10.73;87.48
58644;BME280;44411;49.994;8.660;2022-12-29T10:16:15;99399.03;;;10.75;88.52
58644;BME280;44411;49.994;8.660;2022-12-29T10:18:59;99397.75;;;10.95;88.06
58644;BME280;44411;49.994;8.660;2022-12-29T10:24:12;99380.03;;;11.06;83.12
58644;BME280;44411;49.994;8.660;2022-12-29T10:26:42;99371.38;;;11.13;82.96
58644;BME280;44411;49.994;8.660;2022-12-29T10:29:41;99378.69;;;11.04;82.68
58644;BME280;44411;49.994;8.660;2022-12-29T10:32:32;99388.56;;;11.13;82.81
58644;BME280;44411;49.994;8.660;2022-12-29T10:35:22;99389.69;;;11.12;82.70
58644;BME280;44411;49.994;8.660;2022-12-29T10:37:58;99381.13;;;11.05;83.09
58644;BME280;44411;49.994;8.660;2022-12-29T10:40:29;99368.78;;;11.08;83.21
58644;BME280;44411;49.994;8.660;2022-12-29T10:42:57;99389.00;;;11.07;82.80
58644;BME280;44411;49.994;8.660;2022-12-29T10:45:27;99381.25;;;11.00;82.44
58644;BME280;44411;49.994;8.660;2022-12-29T10:48:00;99393.19;;;11.04;83.17
58644;BME280;44411;49.994;8.660;2022-12-29T10:50:28;99381.25;;;11.00;82.47
58644;BME280;44411;49.994;8.660;2022-12-29T10:52:56;99389.19;;;11.10;81.87
58644;BME280;44411;49.994;8.660;2022-12-29T10:55:28;99381.13;;;11.05;82.66
58644;BME280;44411;49.994;8.660;2022-12-29T10:58:00;99382.47;;;11.17;82.29
58644;BME280;44411;49.994;8.660;2022-12-29T11:00:31;99378.28;;;11.10;82.17
58644;BME280;44411;49.994;8.660;2022-12-29T11:06:11;99389.91;;;11.25;82.32
58644;BME280;44411;49.994;8.660;2022-12-29T11:08:43;99370.03;;;11.33;81.27
58644;BME280;44411;49.994;8.660;2022-12-29T11:11:22;99375.94;;;11.58;82.26
58644;BME280;44411;49.994;8.660;2022-12-29T11:13:51;99387.97;;;11.57;82.36
58644;BME280;44411;49.994;8.660;2022-12-29T11:16:31;99375.50;;;11.33;82.14
58644;BME280;44411;49.994;8.660;2022-12-29T11:18:58;99377.06;;;11.57;82.96
58644;BME280;44411;49.994;8.660;2022-12-29T11:21:36;99384.97;;;11.67;82.71
58644;BME280;44411;49.994;8.660;2022-12-29T11:24:26;99397.25;;;11.78;79.91
58644;BME280;44411;49.994;8.660;2022-12-29T11:27:13;99396.72;;;11.67;80.53
58644;BME280;44411;49.994;8.660;2022-12-29T11:29:41;99397.72;;;11.71;80.16
58644;BME280;44411;49.994;8.660;2022-12-29T11:32:18;99398.56;;;11.89;78.25
58644;BME280;44411;49.994;8.660;2022-12-29T11:34:44;99398.75;;;11.93;77.10
58644;BME280;44411;49.994;8.660;2022-12-29T11:37:18;99399.28;;;12.04;76.34
58644;BME280;44411;49.994;8.660;2022-12-29T11:39:57;99402.06;;;12.21;77.07
58644;BME280;44411;49.994;8.660;2022-12-29T11:42:35;99401.88;;;12.09;75.62
58644;BME280;44411;49.994;8.660;2022-12-29T11:45:05;99407.69;;;12.16;76.87
58644;BME280;44411;49.994;8.660;2022-12-29T11:47:32;99416.69;;;12.08;74.95
58644;BME280;44411;49.994;8.660;2022-12-29T11:50:04;99393.88;;;12.21;75.22
58644;BME280;44411;49.994;8.660;2022-12-29T11:52:35;99394.19;;;12.46;74.85
58644;BME280;44411;49.994;8.660;2022-12-29T11:55:03;99369.44;;;12.34;75.35
58644;BME280;44411;49.994;8.660;2022-12-29T11:57:32;99376.03;;;12.50;76.14
58644;BME280;44411;49.994;8.660;2022-12-29T12:00:02;99385.69;;;12.39;74.64
58644;BME280;44411;49.994;8.660;2022-12-29T12:02:48;99388.56;;;12.42;73.79
58644;BME280;44411;49.994;8.660;2022-12-29T12:08:37;99384.09;;;12.46;74.72
58644;BME280;44411;49.994;8.660;2022-12-29T12:11:26;99380.53;;;12.55;73.27
58644;BME280;44411;49.994;8.660;2022-12-29T12:14:11;99375.72;;;12.52;72.52
58644;BME280;44411;49.994;8.660;2022-12-29T12:17:03;99379.88;;;12.49;74.83
58644;BME280;44411;49.994;8.660;2022-12-29T12:19:43;99369.09;;;12.44;72.28
58644;BME280;44411;49.994;8.660;2022-12-29T12:22:37;99373.00;;;12.52;73.23
58644;BME280;44411;49.994;8.660;2022-12-29T12:25:11;99376.19;;;12.62;72.00
58644;BME280;44411;49.994;8.660;2022-12-29T12:27:44;99359.91;;;12.31;73.72
58644;BME280;44411;49.994;8.660;2022-12-29T12:30:19;99411.56;;;12.33;73.80
58644;BME280;44411;49.994;8.660;2022-12-29T12:33:04;99388.09;;;12.49;72.33
58644;BME280;44411;49.994;8.660;2022-12-29T12:41:33;99368.47;;;12.56;72.52
58644;BME280;44411;49.994;8.660;2022-12-29T12:52:10;99380.50;;;13.16;72.85
58644;BME280;44411;49.994;8.660;2022-12-29T13:08:48;99378.13;;;12.71;73.00
58644;BME280;44411;49.994;8.660;2022-12-29T13:11:25;99366.06;;;12.63;73.88
58644;BME280;44411;49.994;8.660;2022-12-29T13:14:24;99371.69;;;12.66;73.75
58644;BME280;44411;49.994;8.660;2022-12-29T13:19:36;99364.44;;;12.71;72.40
58644;BME280;44411;49.994;8.660;2022-12-29T13:22:37;99359.44;;;12.73;72.52
58644;BME280;44411;49.994;8.660;2022-12-29T13:25:22;99368.13;;;12.83;69.86
58644;BME280;44411;49.994;8.660;2022-12-29T13:28:02;99375.66;;;13.04;70.81
58644;BME280;44411;49.994;8.660;2022-12-29T13:33:44;99390.84;;;12.84;70.38
58644;BME280;44411;49.994;8.660;2022-12-29T13:36:28;99350.59;;;12.84;70.95
58644;BME280;44411;49.994;8.660;2022-12-29T13:41:53;99371.97;;;13.00;70.47
58644;BME280;44411;49.994;8.660;2022-12-29T13:44:31;99379.56;;;13.03;69.41
58644;BME280;44411;49.994;8.660;2022-12-29T13:47:04;99387.78;;;12.94;68.80
58644;BME280;44411;49.994;8.660;2022-12-29T13:49:32;99379.41;;;12.99;69.97
58644;BME280;44411;49.994;8.660;2022-12-29T13:52:07;99387.78;;;12.94;69.38
58644;BME280;44411;49.994;8.660;2022-12-29T13:54:45;99386.81;;;12.90;68.57
58644;BME280;44411;49.994;8.660;2022-12-29T13:59:50;99379.41;;;12.82;67.45
58644;BME280;44411;49.994;8.660;2022-12-29T14:05:14;99377.94;;;12.93;66.99
58644;BME280;44411;49.994;8.660;2022-12-29T14:08:04;99382.28;;;12.94;67.79
58644;BME280;44411;49.994;8.660;2022-12-29T14:10:36;99376.34;;;12.92;67.26
58644;BME280;44411;49.994;8.660;2022-12-29T14:13:23;99386.00;;;12.98;66.33
58644;BME280;44411;49.994;8.660;2022-12-29T14:15:55;99384.88;;;12.99;68.36
58644;BME280;44411;49.994;8.660;2022-12-29T14:18:28;99385.84;;;12.86;67.89
58644;BME280;44411;49.994;8.660;2022-12-29T14:23:42;99399.38;;;12.91;68.41
58644;BME280;44411;49.994;8.660;2022-12-29T14:26:34;99394.88;;;12.86;67.23
58644;BME280;44411;49.994;8.660;2022-12-29T14:39:48;99418.88;;;12.72;68.24
58644;BME280;44411;49.994;8.660;2022-12-29T14:42:15;99419.19;;;12.71;67.53
58644;BME280;44411;49.994;8.660;2022-12-29T14:44:47;99414.81;;;12.70;67.13
58644;BME280;44411;49.994;8.660;2022-12-29T14:50:06;99423.84;;;12.61;67.42
58644;BME280;44411;49.994;8.660;2022-12-29T14:52:32;99432.56;;;12.81;66.11
58644;BME280;44411;49.994;8.660;2022-12-29T14:58:06;99430.63;;;12.73;66.71
58644;BME280;44411;49.994;8.660;2022-12-29T15:00:38;99417.88;;;12.85;66.04
58644;BME280;44411;49.994;8.660;2022-12-29T15:03:06;99426.09;;;12.77;66.97
58644;BME280;44411;49.994;8.660;2022-12-29T15:05:37;99419.97;;;12.45;67.08
58644;BME280;44411;49.994;8.660;2022-12-29T15:08:06;99417.91;;;12.68;66.29
58644;BME280;44411;49.994;8.660;2022-12-29T15:10:37;99421.59;;;12.63;66.76
58644;BME280;44411;49.994;8.660;2022-12-29T15:13:09;99429.16;;;12.58;67.09
58644;BME280;44411;49.994;8.660;2022-12-29T15:15:39;99430.63;;;12.55;67.01
58644;BME280;44411;49.994;8.660;2022-12-29T15:18:22;99446.50;;;12.36;67.28
58644;BME280;44411;49.994;8.660;2022-12-29T15:20:51;99454.09;;;12.39;66.71
58644;BME280;44411;49.994;8.660;2022-12-29T15:23:19;99443.56;;;12.23;68.20
58644;BME280;44411;49.994;8.660;2022-12-29T15:25:55;99439.19;;;12.05;67.97
58644;BME280;44411;49.994;8.660;2022-12-29T15:28:22;99448.91;;;12.28;67.11
58644;BME280;44411;49.994;8.660;2022-12-29T15:30:55;99436.13;;;12.06;68.01
58644;BME280;44411;49.994;8.660;2022-12-29T15:33:23;99447.03;;;11.98;69.07
58644;BME280;44411;49.994;8.660;2022-12-29T15:35:53;99434.97;;;11.99;68.25
58644;BME280;44411;49.994;8.660;2022-12-29T15:38:23;99417.59;;;11.95;69.31
58644;BME280;44411;49.994;8.660;2022-12-29T15:40:55;99426.53;;;11.86;68.97
58644;BME280;44411;49.994;8.660;2022-12-29T15:43:39;99451.91;;;11.78;69.95
58644;BME280;44411;49.994;8.660;2022-12-29T15:46:11;99443.53;;;11.75;70.00
58644;BME280;44411;49.994;8.660;2022-12-29T15:48:38;99451.91;;;11.78;70.04
58644;BME280;44411;49.994;8.660;2022-12-29T15:51:14;99448.00;;;11.70;70.08
58644;BME280;44411;49.994;8.660;2022-12-29T15:53:46;99458.31;;;11.74;70.21
58644;BME280;44411;49.994;8.660;2022-12-29T15:56:12;99446.72;;;11.68;70.15
58644;BME280;44411;49.994;8.660;2022-12-29T15:58:46;99455.66;;;11.60;70.25
58644;BME280;44411;49.994;8.660;2022-12-29T16:01:27;99464.47;;;11.57;70.61
58644;BME280;44411;49.994;8.660;2022-12-29T16:03:55;99447.59;;;11.55;70.13
58644;BME280;44411;49.994;8.660;2022-12-29T16:09:01;99472.22;;;11.32;70.91
58644;BME280;44411;49.994;8.660;2022-12-29T16:11:32;99456.25;;;11.25;71.50
58644;BME280;44411;49.994;8.660;2022-12-29T16:13:58;99458.19;;;11.25;71.73
58644;BME280;44411;49.994;8.660;2022-12-29T16:16:30;99461.53;;;11.22;72.30
58644;BME280;44411;49.994;8.660;2022-12-29T16:18:57;99453.09;;;11.09;71.64
58644;BME280;44411;49.994;8.660;2022-12-29T16:21:29;99472.16;;;11.23;71.78
58644;BME280;44411;49.994;8.660;2022-12-29T16:24:02;99473.34;;;11.08;72.70
58644;BME280;44411;49.994;8.660;2022-12-29T16:26:30;99483.47;;;11.08;72.49
58644;BME280;44411;49.994;8.660;2022-12-29T16:28:58;99479.84;;;11.21;71.76
58644;BME280;44411;49.994;8.660;2022-12-29T16:34:25;99486.41;;;10.98;73.50
58644;BME280;44411;49.994;8.660;2022-12-29T16:37:27;99493.91;;;10.92;73.82
58644;BME280;44411;49.994;8.660;2022-12-29T16:39:48;99478.91;;;10.67;73.97
58644;BME280;44411;49.994;8.660;2022-12-29T16:50:40;99514.22;;;10.86;72.92
58644;BME280;44411;49.994;8.660;2022-12-29T16:53:19;99518.69;;;10.82;73.46
58644;BME280;44411;49.994;8.660;2022-12-29T16:55:48;99512.81;;;10.88;72.58
58644;BME280;44411;49.994;8.660;2022-12-29T16:58:18;99499.69;;;10.76;73.20
58644;BME280;44411;49.994;8.660;2022-12-29T17:00:46;99505.78;;;10.73;73.73
58644;BME280;44411;49.994;8.660;2022-12-29T17:03:12;99496.50;;;10.61;74.31
58644;BME280;44411;49.994;8.660;2022-12-29T17:05:38;99515.91;;;10.59;74.17
58644;BME280;44411;49.994;8.660;2022-12-29T17:08:16;99525.69;;;10.60;74.00
58644;BME280;44411;49.994;8.660;2022-12-29T17:10:51;99508.72;;;10.63;73.17
58644;BME280;44411;49.994;8.660;2022-12-29T17:13:35;99523.16;;;10.64;73.78
58644;BME280;44411;49.994;8.660;2022-12-29T17:16:01;99509.06;;;10.48;74.12
58644;BME280;44411;49.994;8.660;2022-12-29T17:18:27;99520.66;;;10.53;74.59
58644;BME280;44411;49.994;8.660;2022-12-29T17:20:52;99523.19;;;10.50;74.20
58644;BME280;44411;49.994;8.660;2022-12-29T17:23:17;99536.91;;;10.72;72.84
58644;BME280;44411;49.994;8.660;2022-12-29T17:25:43;99530.69;;;10.44;74.24
58644;BME280;44411;49.994;8.660;2022-12-29T17:28:24;99535.31;;;10.57;73.51
58644;BME280;44411;49.994;8.660;2022-12-29T17:30:59;99538.75;;;10.35;74.60
58644;BME280;44411;49.994;8.660;2022-12-29T17:33:26;99533.28;;;10.49;74.48
58644;BME280;44411;49.994;8.660;2022-12-29T17:35:52;99528.66;;;10.50;73.95
58644;BME280;44411;49.994;8.660;2022-12-29T17:38:25;99527.84;;;10.35;74.80
58644;BME280;44411;49.994;8.660;2022-12-29T17:40:51;99526.72;;;10.36;74.84
58644;BME280;44411;49.994;8.660;2022-12-29T17:43:17;99522.59;;;10.39;73.73
58644;BME280;44411;49.994;8.660;2022-12-29T17:45:46;99542.00;;;10.51;73.91
58644;BME280;44411;49.994;8.660;2022-12-29T17:48:15;99542.97;;;10.42;73.81
58644;BME280;44411;49.994;8.660;2022-12-29T17:50:41;99536.63;;;10.46;73.58
58644;BME280;44411;49.994;8.660;2022-12-29T17:53:26;99518.44;;;10.28;74.13
58644;BME280;44411;49.994;8.660;2022-12-29T17:55:54;99522.56;;;10.25;74.29
58644;BME280;44411;49.994;8.660;2022-12-29T17:58:23;99519.72;;;10.30;74.31
58644;BME280;44411;49.994;8.660;2022-12-29T18:00:55;99521.94;;;10.28;74.04
58644;BME280;44411;49.994;8.660;2022-12-29T18:03:26;99516.19;;;10.30;74.28
58644;BME280;44411;49.994;8.660;2022-12-29T18:05:53;99528.38;;;10.18;74.45
58644;BME280;44411;49.994;8.660;2022-12-29T18:08:18;99527.84;;;10.35;73.38
58644;BME280;44411;49.994;8.660;2022-12-29T18:10:44;99527.50;;;10.23;73.96
58644;BME280;44411;49.994;8.660;2022-12-29T18:13:21;99524.69;;;10.28;73.71
58644;BME280;44411;49.994;8.660;2022-12-29T18:15:48;99528.44;;;10.32;73.92
58644;BME280;44411;49.994;8.660;2022-12-29T18:18:17;99527.84;;;10.35;73.68
58644;BME280;44411;49.994;8.660;2022-12-29T18:20:43;99544.81;;;10.32;72.88
58644;BME280;44411;49.994;8.660;2022-12-29T18:23:18;99541.47;;;10.35;72.95
58644;BME280;44411;49.994;8.660;2022-12-29T18:25:48;99545.72;;;10.42;72.98
58644;BME280;44411;49.994;8.660;2022-12-29T18:28:15;99550.47;;;10.50;72.47
58644;BME280;44411;49.994;8.660;2022-12-29T18:30:41;99540.25;;;10.28;73.21
58644;BME280;44411;49.994;8.660;2022-12-29T18:33:12;99552.97;;;10.32;73.14
58644;BME280;44411;49.994;8.660;2022-12-29T18:35:41;99535.69;;;10.23;72.70
58644;BME280;44411;49.994;8.660;2022-12-29T18:38:09;99545.16;;;10.26;72.84
58644;BME280;44411;49.994;8.660;2022-12-29T18:40:34;99568.53;;;10.46;71.83
58644;BME280;44411;49.994;8.660;2022-12-29T18:43:01;99542.38;;;10.31;72.19
58644;BME280;44411;49.994;8.660;2022-12-29T18:45:28;99578.34;;;10.61;71.32
58644;BME280;44411;49.994;8.660;2022-12-29T18:47:54;99572.69;;;10.57;70.88
58644;BME280;44411;49.994;8.660;2022-12-29T18:50:19;99561.38;;;10.50;71.51
58644;BME280;44411;49.994;8.660;2022-12-29T18:52:44;99549.88;;;10.39;72.01
58644;BME280;44411;49.994;8.660;2022-12-29T18:55:16;99559.34;;;10.42;71.96
58644;BME280;44411;49.994;8.660;2022-12-29T18:57:43;99562.38;;;10.40;72.19
58644;BME280;44411;49.994;8.660;2022-12-29T19:00:10;99560.66;;;10.58;71.26
58644;BME280;44411;49.994;8.660;2022-12-29T19:02:35;99559.94;;;10.38;72.26
58644;BME280;44411;49.994;8.660;2022-12-29T19:05:01;99570.97;;;10.61;71.88
58644;BME280;44411;49.994;8.660;2022-12-29T19:07:26;99563.19;;;10.54;71.14
58644;BME280;44411;49.994;8.660;2022-12-29T19:09:52;99573.09;;;10.50;72.29
58644;BME280;44411;49.994;8.660;2022-12-29T19:12:17;99589.47;;;10.64;71.80
58644;BME280;44411;49.994;8.660;2022-12-29T19:14:43;99572.09;;;10.46;72.73
58644;BME280;44411;49.994;8.660;2022-12-29T19:17:12;99587.31;;;10.75;71.40
58644;BME280;44411;49.994;8.660;2022-12-29T19:19:39;99577.53;;;10.60;72.26
58644;BME280;44411;49.994;8.660;2022-12-29T19:22:05;99593.28;;;10.63;72.94
58644;BME280;44411;49.994;8.660;2022-12-29T19:24:30;99589.66;;;10.68;71.93